createdAt,value
2018-07-04T00:00:21.846Z,79.62
2018-07-04T00:02:15.124Z,78.76
2018-07-04T00:03:15.044Z,79.81
2018-07-04T00:05:07.893Z,79.62
2018-07-04T00:06:07.757Z,79.72
2018-07-04T00:08:00.614Z,80.77
2018-07-04T00:09:00.504Z,79.52
2018-07-04T00:10:53.358Z,80.48
2018-07-04T00:11:53.250Z,80.77
2018-07-04T00:13:46.120Z,81.88
2018-07-04T00:14:46.045Z,82.35
2018-07-04T00:16:38.849Z,81.88
2018-07-04T00:17:38.774Z,82.07
2018-07-04T00:19:31.626Z,83.60
2018-07-04T00:20:31.507Z,83.69
2018-07-04T00:22:24.240Z,82.93
2018-07-04T00:23:24.150Z,83.60
2018-07-04T00:25:17.006Z,84.08
2018-07-04T00:26:16.897Z,83.22
2018-07-04T00:28:09.680Z,85.03
2018-07-04T00:29:09.557Z,85.41
2018-07-04T00:31:02.391Z,85.71
2018-07-04T00:32:02.199Z,85.61
2018-07-04T00:33:54.975Z,86.85
2018-07-04T00:34:54.856Z,87.57
2018-07-04T00:36:48.090Z,86.80
2018-07-04T00:37:48.011Z,87.52
2018-07-04T00:39:40.868Z,87.23
2018-07-04T00:40:40.740Z,86.80
2018-07-04T00:42:34.101Z,86.43
2018-07-04T00:43:33.399Z,88.05
2018-07-04T00:45:26.254Z,88.15
2018-07-04T00:46:26.137Z,88.15
2018-07-04T00:48:19.016Z,88.43
2018-07-04T00:49:18.892Z,88.43
2018-07-04T00:51:11.651Z,87.38
2018-07-04T00:52:11.555Z,88.24
2018-07-04T00:54:04.433Z,88.43
2018-07-04T00:55:04.309Z,88.53
2018-07-04T00:56:57.159Z,89.20
2018-07-04T00:57:57.045Z,89.20
2018-07-04T00:59:49.888Z,89.67
2018-07-04T01:00:49.795Z,90.06
2018-07-04T01:02:42.732Z,90.73
2018-07-04T01:03:42.644Z,90.73
2018-07-04T01:05:35.390Z,91.30
2018-07-04T01:06:35.286Z,91.59
2018-07-04T01:08:28.138Z,91.11
2018-07-04T01:09:28.037Z,91.02
2018-07-04T01:11:20.876Z,90.63
2018-07-04T01:12:20.824Z,90.92
2018-07-04T01:14:14.638Z,90.53
2018-07-04T01:15:13.499Z,91.11
2018-07-04T01:17:06.845Z,91.39
2018-07-04T01:18:06.202Z,91.39
2018-07-04T01:19:59.026Z,92.35
2018-07-04T01:20:58.946Z,93.16
2018-07-04T01:22:51.690Z,93.45
2018-07-04T01:23:51.592Z,93.40
2018-07-04T01:25:44.427Z,94.12
2018-07-04T01:26:44.336Z,93.45
2018-07-04T01:28:37.207Z,93.16
2018-07-04T01:29:37.098Z,92.97
2018-07-04T01:31:29.834Z,94.60
2018-07-04T01:32:29.736Z,94.70
2018-07-04T01:34:22.483Z,94.60
2018-07-04T01:35:22.405Z,94.60
2018-07-04T01:37:15.282Z,94.89
2018-07-04T01:38:15.171Z,95.17
2018-07-04T01:40:09.991Z,96.42
2018-07-04T01:41:09.325Z,95.75
2018-07-04T01:43:02.047Z,95.17
2018-07-04T01:44:01.956Z,95.75
2018-07-04T01:45:54.804Z,95.56
2018-07-04T01:46:54.702Z,96.22
2018-07-04T01:48:47.453Z,96.13
2018-07-04T01:49:47.353Z,96.89
2018-07-04T01:51:40.713Z,96.32
2018-07-04T01:52:40.106Z,97.18
2018-07-04T01:54:32.910Z,96.89
2018-07-04T01:55:32.786Z,96.89
2018-07-04T01:57:25.618Z,96.80
2018-07-04T01:58:25.499Z,96.80
2018-07-04T02:00:18.253Z,96.89
2018-07-04T02:01:18.166Z,97.52
2018-07-04T02:03:11.902Z,97.71
2018-07-04T02:04:10.890Z,97.23
2018-07-04T02:06:04.265Z,97.80
2018-07-04T02:07:03.749Z,98.37
2018-07-04T02:08:56.514Z,98.85
2018-07-04T02:09:56.398Z,99.23
2018-07-04T02:11:49.174Z,99.33
2018-07-04T02:12:49.065Z,99.33
2018-07-04T02:14:41.884Z,99.99
2018-07-04T02:15:41.790Z,99.71
2018-07-04T02:17:34.562Z,99.80
2018-07-04T02:18:34.435Z,99.99
2018-07-04T02:20:27.296Z,99.90
2018-07-04T02:21:27.185Z,99.99
2018-07-04T02:23:19.946Z,99.99
2018-07-04T02:24:19.839Z,99.71
2018-07-04T02:26:12.596Z,99.99
2018-07-04T02:27:12.488Z,99.99
2018-07-04T02:29:05.328Z,99.99
2018-07-04T02:30:05.223Z,99.99
2018-07-04T02:31:58.081Z,99.99
2018-07-04T02:32:57.913Z,99.99
2018-07-04T02:34:50.659Z,99.85
2018-07-04T02:35:50.532Z,99.99
2018-07-04T02:37:43.268Z,99.99
2018-07-04T02:38:43.181Z,99.99
2018-07-04T02:40:36.044Z,99.99
2018-07-04T02:41:35.938Z,99.99
2018-07-04T02:43:28.785Z,99.99
2018-07-04T02:44:28.694Z,99.99
2018-07-04T02:46:21.590Z,99.99
2018-07-04T02:47:21.420Z,99.99
2018-07-04T02:49:14.162Z,99.99
2018-07-04T02:50:14.073Z,99.99
2018-07-04T02:52:06.960Z,99.99
2018-07-04T02:53:06.879Z,99.99
2018-07-04T02:54:59.662Z,99.99
2018-07-04T02:55:59.604Z,99.99
2018-07-04T02:57:52.335Z,99.99
2018-07-04T02:58:52.222Z,99.99
2018-07-04T03:00:44.958Z,99.99
2018-07-04T03:01:44.871Z,99.99
2018-07-04T03:03:37.633Z,99.99
2018-07-04T03:04:37.512Z,99.99
2018-07-04T03:06:30.354Z,99.99
2018-07-04T03:07:30.267Z,99.99
2018-07-04T03:09:23.123Z,99.99
2018-07-04T03:10:23.002Z,99.99
2018-07-04T03:12:16.369Z,99.99
2018-07-04T03:13:15.671Z,99.99
2018-07-04T03:15:08.517Z,99.99
2018-07-04T03:16:08.421Z,99.99
2018-07-04T03:18:01.244Z,99.99
2018-07-04T03:19:01.156Z,99.99
2018-07-04T03:20:53.933Z,99.99
2018-07-04T03:21:53.815Z,99.99
2018-07-04T03:23:46.552Z,99.99
2018-07-04T03:24:46.451Z,99.99
2018-07-04T03:26:39.225Z,99.99
2018-07-04T03:27:39.095Z,99.99
2018-07-04T03:29:31.944Z,99.99
2018-07-04T03:30:31.848Z,99.99
2018-07-04T03:32:24.707Z,99.99
2018-07-04T03:33:24.602Z,99.99
2018-07-04T03:35:17.338Z,99.99
2018-07-04T03:36:17.267Z,99.99
2018-07-04T03:38:10.126Z,99.99
2018-07-04T03:39:10.008Z,99.99
2018-07-04T03:41:02.847Z,99.99
2018-07-04T03:42:02.754Z,99.99
2018-07-04T03:43:55.611Z,99.99
2018-07-04T03:44:55.497Z,99.99
2018-07-04T03:46:48.229Z,99.99
2018-07-04T03:47:48.140Z,99.99
2018-07-04T03:49:41.041Z,99.99
2018-07-04T03:50:40.799Z,99.99
2018-07-04T03:52:33.577Z,99.99
2018-07-04T03:53:33.429Z,99.99
2018-07-04T03:55:26.813Z,99.99
2018-07-04T03:56:26.199Z,99.99
2018-07-04T03:58:18.949Z,99.99
2018-07-04T03:59:18.847Z,99.99
2018-07-04T04:01:11.601Z,99.99
2018-07-04T04:02:11.490Z,99.99
2018-07-04T04:04:05.244Z,99.99
2018-07-04T04:05:05.157Z,99.99
2018-07-04T04:06:58.079Z,99.99
2018-07-04T04:07:57.902Z,99.99
2018-07-04T04:09:50.754Z,99.99
2018-07-04T04:10:50.642Z,99.99
2018-07-04T04:12:43.539Z,99.99
2018-07-04T04:13:43.393Z,99.99
2018-07-04T04:15:36.158Z,99.99
2018-07-04T04:16:36.057Z,99.99
2018-07-04T04:18:28.937Z,99.99
2018-07-04T04:19:28.687Z,99.99
2018-07-04T04:21:21.543Z,99.99
2018-07-04T04:22:21.357Z,99.99
2018-07-04T04:24:14.210Z,99.99
2018-07-04T04:25:14.080Z,99.99
2018-07-04T04:27:06.997Z,99.99
2018-07-04T04:28:06.848Z,99.99
2018-07-04T04:29:59.609Z,99.99
2018-07-04T04:30:59.478Z,99.99
2018-07-04T04:32:52.237Z,99.99
2018-07-04T04:33:52.180Z,99.99
2018-07-04T04:35:44.993Z,99.99
2018-07-04T04:36:44.879Z,99.99
2018-07-04T04:38:37.727Z,99.99
2018-07-04T04:39:37.638Z,99.99
2018-07-04T04:41:30.390Z,99.99
2018-07-04T04:42:30.312Z,99.99
2018-07-04T04:44:23.128Z,99.99
2018-07-04T04:45:23.022Z,99.99
2018-07-04T04:47:15.793Z,99.99
2018-07-04T04:48:15.679Z,99.99
2018-07-04T04:50:08.439Z,99.99
2018-07-04T04:51:08.358Z,99.99
2018-07-04T04:53:01.133Z,99.99
2018-07-04T04:54:00.967Z,99.99
2018-07-04T04:55:53.810Z,99.99
2018-07-04T04:56:53.747Z,99.99
2018-07-04T04:58:46.492Z,99.99
2018-07-04T04:59:46.359Z,99.99
2018-07-04T05:01:39.123Z,99.99
2018-07-04T05:02:39.015Z,99.99
2018-07-04T05:04:31.832Z,99.99
2018-07-04T05:05:31.652Z,99.99
2018-07-04T05:07:24.552Z,99.99
2018-07-04T05:08:24.409Z,99.99
2018-07-04T05:10:17.287Z,99.99
2018-07-04T05:11:17.175Z,99.99
2018-07-04T05:13:10.042Z,99.99
2018-07-04T05:14:09.912Z,99.99
2018-07-04T05:16:02.772Z,99.99
2018-07-04T05:17:02.662Z,99.43
2018-07-04T05:18:55.403Z,97.90
2018-07-04T05:19:55.318Z,98.00
2018-07-04T05:21:48.094Z,97.61
2018-07-04T05:22:47.976Z,97.18
2018-07-04T05:24:40.696Z,95.65
2018-07-04T05:25:40.619Z,94.60
2018-07-04T05:27:33.471Z,93.74
2018-07-04T05:28:33.360Z,93.83
2018-07-04T05:30:26.176Z,93.07
2018-07-04T05:31:26.088Z,92.97
2018-07-04T05:33:18.775Z,91.67
2018-07-04T05:34:18.676Z,90.43
2018-07-04T05:36:11.497Z,90.43
2018-07-04T05:37:11.316Z,89.37
2018-07-04T05:39:04.060Z,89.57
2018-07-04T05:40:03.973Z,89.28
2018-07-04T05:41:56.696Z,88.56
2018-07-04T05:42:56.584Z,89.04
2018-07-04T05:44:49.459Z,87.12
2018-07-04T05:45:49.334Z,87.12
2018-07-04T05:47:42.251Z,86.16
2018-07-04T05:48:41.983Z,86.25
2018-07-04T05:50:34.790Z,83.81
2018-07-04T05:51:34.627Z,82.65
2018-07-04T05:53:27.386Z,81.98
2018-07-04T05:54:27.321Z,82.18
2018-07-04T05:56:20.372Z,81.51
2018-07-04T05:57:20.028Z,80.97
2018-07-04T05:59:12.868Z,80.20
2018-07-04T06:00:12.776Z,80.01
2018-07-04T06:02:05.555Z,79.44
2018-07-04T06:03:05.427Z,79.53
2018-07-04T06:04:58.165Z,78.00
2018-07-04T06:05:58.090Z,78.67
2018-07-04T06:07:50.845Z,77.65
2018-07-04T06:08:50.718Z,77.17
2018-07-04T06:10:43.560Z,75.45
2018-07-04T06:11:43.474Z,73.91
2018-07-04T06:13:36.325Z,73.52
2018-07-04T06:14:36.213Z,73.81
2018-07-04T06:16:28.957Z,73.27
2018-07-04T06:17:28.861Z,72.69
2018-07-04T06:19:21.729Z,70.39
2018-07-04T06:20:21.617Z,69.14
2018-07-04T06:22:14.375Z,68.41
2018-07-04T06:23:14.280Z,68.70
2018-07-04T06:25:07.137Z,67.93
2018-07-04T06:26:07.008Z,67.93
2018-07-04T06:27:59.769Z,67.93
2018-07-04T06:28:59.659Z,66.77
2018-07-04T06:30:52.526Z,66.87
2018-07-04T06:31:52.419Z,66.58
2018-07-04T06:33:45.252Z,66.81
2018-07-04T06:34:45.155Z,66.71
2018-07-04T06:36:37.927Z,66.04
2018-07-04T06:37:37.804Z,65.94
2018-07-04T06:39:30.653Z,66.71
2018-07-04T06:40:30.567Z,67.80
2018-07-04T06:42:23.350Z,66.46
2018-07-04T06:43:23.219Z,66.55
2018-07-04T06:45:16.548Z,66.94
2018-07-04T06:46:16.462Z,65.88
2018-07-04T06:48:09.334Z,65.88
2018-07-04T06:49:09.227Z,65.81
2018-07-04T06:51:02.077Z,66.78
2018-07-04T06:52:02.025Z,65.33
2018-07-04T06:53:54.813Z,67.87
2018-07-04T06:54:54.811Z,68.06
2018-07-04T06:56:48.072Z,67.68
2018-07-04T06:57:47.975Z,66.71
2018-07-04T06:59:41.268Z,66.75
2018-07-04T07:00:41.144Z,65.98
2018-07-04T07:02:33.978Z,65.50
2018-07-04T07:03:33.890Z,65.33
2018-07-04T07:05:26.740Z,65.05
2018-07-04T07:06:26.636Z,64.28
2018-07-04T07:08:19.546Z,63.79
2018-07-04T07:09:19.395Z,63.50
2018-07-04T07:11:12.265Z,63.12
2018-07-04T07:12:12.136Z,63.31
2018-07-04T07:14:04.968Z,62.76
2018-07-04T07:15:04.880Z,62.48
2018-07-04T07:16:57.742Z,61.99
2018-07-04T07:17:57.633Z,61.99
2018-07-04T07:19:50.473Z,61.71
2018-07-04T07:20:50.393Z,61.90
2018-07-04T07:22:43.274Z,61.61
2018-07-04T07:23:43.125Z,60.55
2018-07-04T07:25:36.000Z,60.19
2018-07-04T07:26:35.874Z,59.42
2018-07-04T07:28:28.721Z,60.00
2018-07-04T07:29:28.623Z,61.54
2018-07-04T07:31:21.489Z,59.03
2018-07-04T07:32:21.383Z,58.45
2018-07-04T07:34:14.363Z,57.20
2018-07-04T07:35:14.133Z,57.97
2018-07-04T07:37:07.006Z,57.90
2018-07-04T07:38:06.904Z,58.48
2018-07-04T07:39:59.771Z,59.16
2018-07-04T07:40:59.635Z,58.58
2018-07-04T07:42:52.474Z,59.55
2018-07-04T07:43:52.393Z,59.93
2018-07-04T07:45:45.218Z,58.61
2018-07-04T07:46:45.158Z,58.22
2018-07-04T07:48:38.030Z,58.45
2018-07-04T07:49:37.884Z,57.54
2018-07-04T07:51:30.721Z,58.25
2018-07-04T07:52:30.641Z,58.06
2018-07-04T07:54:23.532Z,58.37
2018-07-04T07:55:23.384Z,57.12
2018-07-04T07:57:16.234Z,55.09
2018-07-04T07:58:16.151Z,55.38
2018-07-04T08:00:08.979Z,55.29
2018-07-04T08:01:08.875Z,54.93
2018-07-04T08:03:01.745Z,54.93
2018-07-04T08:04:01.637Z,54.44
2018-07-04T08:05:54.503Z,54.25
2018-07-04T08:06:54.388Z,54.53
2018-07-04T08:08:47.250Z,54.57
2018-07-04T08:09:47.120Z,53.99
2018-07-04T08:11:39.963Z,52.82
2018-07-04T08:12:39.899Z,52.53
2018-07-04T08:14:32.730Z,52.44
2018-07-04T08:15:32.641Z,52.85
2018-07-04T08:17:25.464Z,51.88
2018-07-04T08:18:25.380Z,52.66
2018-07-04T08:20:18.235Z,52.00
2018-07-04T08:21:18.130Z,51.68
2018-07-04T08:23:10.966Z,51.04
2018-07-04T08:24:10.882Z,50.65
2018-07-04T08:26:03.730Z,51.52
2018-07-04T08:27:03.628Z,51.13
2018-07-04T08:28:56.498Z,50.87
2018-07-04T08:29:56.369Z,51.25
2018-07-04T08:31:49.235Z,51.45
2018-07-04T08:32:49.136Z,51.35
2018-07-04T08:34:41.977Z,51.93
2018-07-04T08:35:41.870Z,51.64
2018-07-04T08:37:34.718Z,50.41
2018-07-04T08:38:34.655Z,50.02
2018-07-04T08:40:27.484Z,50.19
2018-07-04T08:41:27.374Z,49.99
2018-07-04T08:43:20.216Z,49.44
2018-07-04T08:44:20.125Z,49.63
2018-07-04T08:46:12.974Z,47.60
2018-07-04T08:47:12.879Z,47.11
2018-07-04T08:49:05.713Z,47.02
2018-07-04T08:50:05.825Z,46.82
2018-07-04T08:51:58.477Z,45.97
2018-07-04T08:52:58.490Z,44.71
2018-07-04T08:54:51.225Z,44.90
2018-07-04T08:55:51.129Z,44.71
2018-07-04T08:57:43.972Z,44.32
2018-07-04T08:58:43.886Z,44.13
2018-07-04T09:00:36.703Z,45.97
2018-07-04T09:01:36.629Z,46.77
2018-07-04T09:03:29.513Z,44.34
2018-07-04T09:04:29.382Z,44.17
2018-07-04T09:06:22.224Z,44.56
2018-07-04T09:07:22.124Z,43.88
2018-07-04T09:09:14.973Z,43.41
2018-07-04T09:10:14.902Z,41.96
2018-07-04T09:12:07.721Z,41.20
2018-07-04T09:13:07.660Z,41.30
2018-07-04T09:15:00.482Z,40.73
2018-07-04T09:16:00.389Z,39.45
2018-07-04T09:17:53.227Z,39.06
2018-07-04T09:18:53.124Z,40.23
2018-07-04T09:20:45.967Z,39.37
2018-07-04T09:21:45.872Z,38.60
2018-07-04T09:23:38.730Z,39.57
2018-07-04T09:24:38.702Z,39.08
2018-07-04T09:26:31.484Z,38.40
2018-07-04T09:27:31.373Z,38.60
2018-07-04T09:29:24.237Z,38.60
2018-07-04T09:30:24.115Z,37.52
2018-07-04T09:32:16.984Z,34.92
2018-07-04T09:33:16.879Z,33.07
2018-07-04T09:35:09.730Z,32.97
2018-07-04T09:36:09.637Z,32.29
2018-07-04T09:38:02.488Z,32.20
2018-07-04T09:39:02.413Z,32.39
2018-07-04T09:40:55.232Z,33.17
2018-07-04T09:41:55.131Z,32.89
2018-07-04T09:43:48.050Z,32.89
2018-07-04T09:44:47.916Z,33.09
2018-07-04T09:46:40.745Z,33.49
2018-07-04T09:47:40.659Z,33.01
2018-07-04T09:49:33.465Z,32.32
2018-07-04T09:50:33.371Z,32.52
2018-07-04T09:52:26.218Z,33.69
2018-07-04T09:53:26.201Z,34.47
2018-07-04T09:55:18.980Z,33.69
2018-07-04T09:56:18.886Z,33.86
2018-07-04T09:58:11.719Z,35.52
2018-07-04T09:59:11.614Z,35.13
2018-07-04T10:01:04.458Z,35.53
2018-07-04T10:02:04.382Z,35.53
2018-07-04T10:03:57.250Z,34.86
2018-07-04T10:04:57.130Z,34.86
2018-07-04T10:06:49.998Z,35.61
2018-07-04T10:07:49.885Z,35.61
2018-07-04T10:09:42.798Z,33.78
2018-07-04T10:10:42.716Z,33.58
2018-07-04T10:12:35.615Z,34.45
2018-07-04T10:13:35.476Z,34.16
2018-07-04T10:15:28.333Z,34.76
2018-07-04T10:16:28.235Z,34.45
2018-07-04T10:18:21.079Z,34.94
2018-07-04T10:19:21.017Z,34.94
2018-07-04T10:21:14.331Z,34.45
2018-07-04T10:22:14.228Z,34.84
2018-07-04T10:24:07.069Z,33.67
2018-07-04T10:25:06.984Z,34.45
2018-07-04T10:26:59.831Z,34.86
2018-07-04T10:27:59.757Z,33.29
2018-07-04T10:29:53.097Z,33.69
2018-07-04T10:30:52.990Z,33.39
2018-07-04T10:32:45.863Z,33.61
2018-07-04T10:33:45.746Z,33.41
2018-07-04T10:35:38.696Z,33.70
2018-07-04T10:36:38.604Z,33.61
2018-07-04T10:38:31.443Z,33.70
2018-07-04T10:39:31.342Z,33.51
2018-07-04T10:41:24.205Z,35.15
2018-07-04T10:42:24.096Z,34.66
2018-07-04T10:44:16.994Z,35.63
2018-07-04T10:45:16.847Z,35.93
2018-07-04T10:47:09.691Z,36.02
2018-07-04T10:48:09.594Z,36.02
2018-07-04T10:50:02.444Z,35.73
2018-07-04T10:51:02.393Z,36.12
2018-07-04T10:52:55.192Z,35.55
2018-07-04T10:53:55.127Z,34.68
2018-07-04T10:55:47.922Z,34.76
2018-07-04T10:56:47.921Z,34.76
2018-07-04T10:58:40.737Z,35.15
2018-07-04T10:59:40.629Z,35.16
2018-07-04T11:01:34.352Z,34.59
2018-07-04T11:02:34.272Z,34.69
2018-07-04T11:04:27.148Z,34.89
2018-07-04T11:05:27.028Z,34.50
2018-07-04T11:07:19.892Z,34.99
2018-07-04T11:08:19.777Z,33.62
2018-07-04T11:10:12.605Z,33.82
2018-07-04T11:11:12.511Z,33.72
2018-07-04T11:13:05.370Z,33.53
2018-07-04T11:14:05.266Z,34.29
2018-07-04T11:15:58.110Z,35.26
2018-07-04T11:16:58.082Z,35.06
2018-07-04T11:18:50.901Z,34.78
2018-07-04T11:19:50.757Z,34.88
2018-07-04T11:21:43.734Z,35.53
2018-07-04T11:22:43.649Z,35.25
2018-07-04T11:24:36.457Z,35.26
2018-07-04T11:25:36.362Z,35.44
2018-07-04T11:27:29.208Z,35.34
2018-07-04T11:28:29.119Z,35.73
2018-07-04T11:30:21.981Z,35.57
2018-07-04T11:31:21.856Z,34.88
2018-07-04T11:33:14.697Z,34.50
2018-07-04T11:34:14.602Z,34.59
2018-07-04T11:36:07.479Z,34.52
2018-07-04T11:37:07.377Z,33.75
2018-07-04T11:39:00.191Z,32.87
2018-07-04T11:40:00.104Z,33.07
2018-07-04T11:41:52.986Z,33.36
2018-07-04T11:42:52.853Z,33.48
2018-07-04T11:44:45.709Z,33.77
2018-07-04T11:45:45.599Z,33.48
2018-07-04T11:47:38.460Z,33.56
2018-07-04T11:48:38.365Z,33.26
2018-07-04T11:50:31.209Z,33.56
2018-07-04T11:51:31.101Z,33.95
2018-07-04T11:53:23.945Z,33.85
2018-07-04T11:54:23.863Z,33.85
2018-07-04T11:56:16.748Z,34.71
2018-07-04T11:57:16.622Z,33.73
2018-07-04T11:59:09.467Z,33.46
2018-07-04T12:00:09.351Z,33.65
2018-07-04T12:02:02.185Z,32.40
2018-07-04T12:03:02.101Z,32.71
2018-07-04T12:04:54.980Z,32.42
2018-07-04T12:05:54.873Z,32.23
2018-07-04T12:07:47.680Z,31.85
2018-07-04T12:08:47.601Z,32.32
2018-07-04T12:10:40.456Z,32.91
2018-07-04T12:11:40.350Z,32.89
2018-07-04T12:13:33.207Z,33.87
2018-07-04T12:14:33.120Z,33.87
2018-07-04T12:16:26.012Z,33.67
2018-07-04T12:17:25.851Z,33.18
2018-07-04T12:19:18.681Z,33.65
2018-07-04T12:20:18.608Z,33.67
2018-07-04T12:22:11.490Z,33.28
2018-07-04T12:23:11.364Z,33.67
2018-07-04T12:25:04.360Z,32.52
2018-07-04T12:26:04.121Z,32.91
2018-07-04T12:27:56.960Z,32.52
2018-07-04T12:28:56.856Z,33.12
2018-07-04T12:30:49.716Z,32.34
2018-07-04T12:31:49.606Z,32.73
2018-07-04T12:33:42.471Z,32.23
2018-07-04T12:34:42.405Z,33.01
2018-07-04T12:36:35.201Z,32.79
2018-07-04T12:37:35.144Z,32.97
2018-07-04T12:39:27.954Z,32.70
2018-07-04T12:40:27.866Z,32.60
2018-07-04T12:42:20.702Z,32.50
2018-07-04T12:43:20.664Z,32.40
2018-07-04T12:45:13.441Z,32.32
2018-07-04T12:46:13.351Z,32.42
2018-07-04T12:48:06.208Z,32.04
2018-07-04T12:49:06.093Z,32.14
2018-07-04T12:51:00.076Z,31.95
2018-07-04T12:51:59.361Z,31.56
2018-07-04T12:53:53.212Z,32.07
2018-07-04T12:54:52.146Z,32.39
2018-07-04T12:56:45.318Z,30.82
2018-07-04T12:57:44.863Z,30.23
2018-07-04T12:59:37.697Z,30.23
2018-07-04T13:00:37.620Z,30.23
2018-07-04T13:02:30.465Z,30.71
2018-07-04T13:03:30.373Z,31.18
2018-07-04T13:05:23.298Z,32.03
2018-07-04T13:06:23.167Z,32.04
2018-07-04T13:08:16.077Z,31.77
2018-07-04T13:09:16.109Z,31.38
2018-07-04T13:11:08.835Z,31.00
2018-07-04T13:12:08.609Z,30.91
2018-07-04T13:14:02.105Z,30.43
2018-07-04T13:15:01.505Z,30.82
2018-07-04T13:16:54.307Z,30.69
2018-07-04T13:17:54.418Z,31.08
2018-07-04T13:19:47.044Z,31.38
2018-07-04T13:20:46.963Z,31.78
2018-07-04T13:22:39.799Z,31.03
2018-07-04T13:23:39.756Z,30.44
2018-07-04T13:25:32.563Z,30.54
2018-07-04T13:26:32.453Z,30.64
2018-07-04T13:28:25.308Z,30.74
2018-07-04T13:29:25.242Z,30.61
2018-07-04T13:31:18.075Z,31.29
2018-07-04T13:32:18.005Z,31.29
2018-07-04T13:34:10.832Z,31.59
2018-07-04T13:35:10.725Z,31.29
2018-07-04T13:37:03.554Z,31.01
2018-07-04T13:38:03.451Z,30.64
2018-07-04T13:39:56.307Z,30.43
2018-07-04T13:40:56.236Z,30.62
2018-07-04T13:42:49.063Z,30.90
2018-07-04T13:43:48.967Z,31.11
2018-07-04T13:45:44.189Z,30.15
2018-07-04T13:46:42.460Z,30.07
2018-07-04T13:48:35.178Z,30.13
2018-07-04T13:49:35.068Z,30.61
2018-07-04T13:51:28.427Z,30.91
2018-07-04T13:52:28.328Z,30.13
2018-07-04T13:54:21.193Z,30.72
2018-07-04T13:55:21.080Z,30.25
2018-07-04T13:57:13.949Z,30.64
2018-07-04T13:58:13.968Z,30.44
2018-07-04T14:00:07.228Z,30.91
2018-07-04T14:01:06.575Z,30.91
2018-07-04T14:02:59.404Z,30.15
2018-07-04T14:03:59.406Z,30.25
2018-07-04T14:05:52.694Z,30.90
2018-07-04T14:06:52.606Z,31.87
2018-07-04T14:08:45.445Z,31.67
2018-07-04T14:09:45.345Z,31.57
2018-07-04T14:11:38.201Z,31.10
2018-07-04T14:12:38.221Z,30.82
2018-07-04T14:14:31.452Z,30.33
2018-07-04T14:15:31.369Z,30.72
2018-07-04T14:17:24.230Z,32.06
2018-07-04T14:18:24.117Z,31.87
2018-07-04T14:20:16.935Z,31.98
2018-07-04T14:21:16.857Z,32.17
2018-07-04T14:23:10.208Z,31.98
2018-07-04T14:24:10.111Z,31.41
2018-07-04T14:26:02.964Z,30.74
2018-07-04T14:27:02.865Z,30.74
2018-07-04T14:28:57.725Z,30.91
2018-07-04T14:29:55.630Z,31.03
2018-07-04T14:31:49.284Z,30.16
2018-07-04T14:32:48.428Z,30.08
2018-07-04T14:34:41.254Z,30.26
2018-07-04T14:35:41.122Z,31.14
2018-07-04T14:37:33.963Z,31.13
2018-07-04T14:38:34.088Z,31.81
2018-07-04T14:40:26.726Z,30.93
2018-07-04T14:41:26.623Z,31.31
2018-07-04T14:43:19.485Z,31.60
2018-07-04T14:44:19.375Z,31.60
2018-07-04T14:46:12.223Z,31.39
2018-07-04T14:47:12.116Z,32.07
2018-07-04T14:49:04.970Z,32.26
2018-07-04T14:50:04.884Z,32.75
2018-07-04T14:51:57.741Z,32.35
2018-07-04T14:52:57.619Z,32.45
2018-07-04T14:54:50.454Z,32.55
2018-07-04T14:55:50.381Z,32.73
2018-07-04T14:57:43.195Z,33.30
2018-07-04T14:58:43.102Z,33.20
2018-07-04T15:00:35.960Z,33.22
2018-07-04T15:01:35.853Z,33.30
2018-07-04T15:03:29.316Z,33.20
2018-07-04T15:04:29.473Z,33.59
2018-07-04T15:06:22.044Z,33.59
2018-07-04T15:07:22.000Z,34.26
2018-07-04T15:09:14.823Z,34.57
2018-07-04T15:10:14.717Z,34.47
2018-07-04T15:12:08.144Z,33.33
2018-07-04T15:13:07.977Z,33.23
2018-07-04T15:15:00.833Z,33.04
2018-07-04T15:16:00.908Z,32.94
2018-07-04T15:17:54.189Z,33.31
2018-07-04T15:18:54.006Z,33.31
2018-07-04T15:20:46.855Z,33.79
2018-07-04T15:21:46.745Z,33.89
2018-07-04T15:23:39.572Z,33.98
2018-07-04T15:24:39.523Z,33.69
2018-07-04T15:26:32.880Z,33.80
2018-07-04T15:27:32.803Z,33.89
2018-07-04T15:29:25.608Z,33.79
2018-07-04T15:30:25.507Z,34.57
2018-07-04T15:32:18.346Z,34.67
2018-07-04T15:33:18.247Z,34.47
2018-07-04T15:35:11.614Z,34.47
2018-07-04T15:36:11.520Z,33.79
2018-07-04T15:38:04.387Z,33.69
2018-07-04T15:39:04.305Z,33.70
2018-07-04T15:40:57.129Z,33.22
2018-07-04T15:41:57.013Z,33.14
2018-07-04T15:43:49.903Z,33.61
2018-07-04T15:44:49.793Z,33.80
2018-07-04T15:46:42.611Z,33.61
2018-07-04T15:47:42.514Z,33.51
2018-07-04T15:49:35.333Z,33.80
2018-07-04T15:50:35.258Z,33.31
2018-07-04T15:52:28.097Z,33.79
2018-07-04T15:53:28.013Z,33.89
2018-07-04T15:55:20.919Z,33.89
2018-07-04T15:56:20.771Z,34.28
2018-07-04T15:58:13.599Z,35.16
2018-07-04T15:59:13.505Z,34.96
2018-07-04T16:01:06.339Z,35.06
2018-07-04T16:02:06.261Z,35.25
2018-07-04T16:03:59.264Z,34.57
2018-07-04T16:04:59.022Z,34.57
2018-07-04T16:06:51.876Z,34.96
2018-07-04T16:07:51.760Z,34.86
2018-07-04T16:09:44.607Z,34.68
2018-07-04T16:10:44.512Z,33.90
2018-07-04T16:12:37.352Z,34.41
2018-07-04T16:13:37.279Z,34.01
2018-07-04T16:15:30.116Z,33.34
2018-07-04T16:16:30.010Z,33.36
2018-07-04T16:18:22.849Z,32.39
2018-07-04T16:19:22.751Z,31.91
2018-07-04T16:21:15.604Z,31.55
2018-07-04T16:22:15.543Z,30.90
2018-07-04T16:24:08.396Z,29.53
2018-07-04T16:25:08.311Z,29.63
2018-07-04T16:27:01.114Z,30.11
2018-07-04T16:28:01.162Z,29.72
2018-07-04T16:29:53.906Z,30.68
2018-07-04T16:30:53.842Z,31.06
2018-07-04T16:32:46.590Z,30.39
2018-07-04T16:33:46.503Z,29.24
2018-07-04T16:35:39.380Z,28.95
2018-07-04T16:36:39.261Z,28.58
2018-07-04T16:38:32.128Z,28.37
2018-07-04T16:39:31.998Z,28.95
2018-07-04T16:41:24.854Z,29.21
2018-07-04T16:42:24.751Z,29.80
2018-07-04T16:44:18.539Z,29.31
2018-07-04T16:45:17.514Z,29.90
2018-07-04T16:47:10.408Z,30.08
2018-07-04T16:48:10.286Z,30.27
2018-07-04T16:50:03.096Z,30.10
2018-07-04T16:51:03.033Z,30.11
2018-07-04T16:52:55.829Z,29.22
2018-07-04T16:53:55.751Z,30.39
2018-07-04T16:55:48.601Z,29.70
2018-07-04T16:56:48.496Z,30.27
2018-07-04T16:58:41.357Z,30.49
2018-07-04T16:59:41.262Z,30.29
2018-07-04T17:01:34.088Z,30.12
2018-07-04T17:02:33.998Z,29.63
2018-07-04T17:04:26.855Z,29.63
2018-07-04T17:05:26.750Z,29.72
2018-07-04T17:07:19.590Z,30.87
2018-07-04T17:08:19.513Z,30.55
2018-07-04T17:10:12.341Z,31.42
2018-07-04T17:11:12.249Z,31.62
2018-07-04T17:13:05.165Z,31.81
2018-07-04T17:14:05.015Z,31.71
2018-07-04T17:15:57.850Z,31.71
2018-07-04T17:16:57.747Z,31.91
2018-07-04T17:18:50.591Z,31.73
2018-07-04T17:19:50.498Z,31.32
2018-07-04T17:21:43.343Z,31.81
2018-07-04T17:22:43.247Z,31.91
2018-07-04T17:24:36.088Z,32.19
2018-07-04T17:25:35.997Z,32.66
2018-07-04T17:27:28.834Z,33.25
2018-07-04T17:28:28.738Z,33.17
2018-07-04T17:30:21.639Z,32.48
2018-07-04T17:31:21.501Z,32.78
2018-07-04T17:33:14.922Z,33.09
2018-07-04T17:34:14.247Z,32.70
2018-07-04T17:36:07.125Z,33.48
2018-07-04T17:37:07.092Z,33.87
2018-07-04T17:38:59.856Z,33.95
2018-07-04T17:39:59.752Z,34.24
2018-07-04T17:41:52.598Z,34.34
2018-07-04T17:42:52.533Z,34.72
2018-07-04T17:44:45.361Z,35.09
2018-07-04T17:45:45.255Z,35.19
2018-07-04T17:47:38.222Z,35.48
2018-07-04T17:48:38.007Z,35.68
2018-07-04T17:50:30.834Z,35.50
2018-07-04T17:51:30.762Z,35.03
2018-07-04T17:53:23.646Z,34.33
2018-07-04T17:54:23.486Z,34.14
2018-07-04T17:56:16.908Z,33.74
2018-07-04T17:57:16.236Z,33.95
2018-07-04T17:59:09.093Z,33.56
2018-07-04T18:00:08.999Z,33.65
2018-07-04T18:02:01.827Z,33.75
2018-07-04T18:03:01.738Z,34.62
2018-07-04T18:04:54.592Z,34.54
2018-07-04T18:05:54.488Z,33.95
2018-07-04T18:07:47.334Z,33.65
2018-07-04T18:08:47.255Z,33.85
2018-07-04T18:10:40.602Z,33.28
2018-07-04T18:11:40.503Z,33.29
2018-07-04T18:13:33.334Z,33.87
2018-07-04T18:14:33.252Z,33.75
2018-07-04T18:16:26.127Z,34.89
2018-07-04T18:17:26.065Z,35.38
2018-07-04T18:19:18.908Z,36.43
2018-07-04T18:20:18.748Z,36.51
2018-07-04T18:22:11.594Z,37.37
2018-07-04T18:23:11.500Z,37.65
2018-07-04T18:25:04.343Z,37.07
2018-07-04T18:26:04.252Z,37.17
2018-07-04T18:27:57.094Z,38.24
2018-07-04T18:28:57.005Z,39.02
2018-07-04T18:30:49.912Z,39.69
2018-07-04T18:31:49.750Z,39.98